Aérodrome :
LOGIN :

S'inscrire | Disclaimer

   EN    FR    IT 

 










Légende :    VFR   VFR Marginal   IFR   IFR Intensif   IFR Très Intensif
Visi : 
Plafond : 
>= 8 km
>= 3000ft
5 à 8 km
1000 à 3000 ft
1500m à 5 km
500 à 1000 ft
800 à 1500m
200 à 500 ft
< 800m
< 200 ft
Symboles :   Orages  Brouillard  Fortes neiges  Fortes précipitations  Vent > 20 kt
SIGMETs :   Divers  Orages  Givrage  Turbulence  Onde Orograph.  Cendres Volcan.







- Altitude de l'aérodrome : 268 ft
- Code IATA : BFS
- Voir les cartes d'approche


EGAA - Belfast Aldergrove

DERNIER METAR :
  • 210350Z AUTO 22010KT 9999 SCT007/// SCT015/// BKN020/// 10/09 Q1027

METARs EXPIRÉS :
  • 210320Z 22011KT 9999 SCT019 OVC025 10/09 Q1027
  • 210250Z 22010KT 9999 FEW020 OVC027 10/09 Q1027
  • 210220Z 21012KT 9999 FEW014 SCT018 BKN025 10/09 Q1027
  • 210150Z 21012KT 9999 FEW011 BKN027 OVC032 10/09 Q1027
  • 210120Z 22008KT 9999 BKN011 OVC034 10/08 Q1027

TAF AMD TAF EGAA
Valide du 21 à 03h jusqu'au 22 à 00h UTC


210300Z 2103/2124 22011KT 9999 FEW014 SCT025
BECMG 2103/2106 BKN012
TEMPO 2106/2112 BKN006
PROB30
TEMPO 2106/2111 7000 -DZ
BECMG 2112/2115 FEW012 BKN018
PROB30
TEMPO 2115/2124 BKN014
Pas de NOTAMs connus pour ce terrain.
1 SIGMET publié pour la FIR Scottish (EGPX) :
 
Onde orographique forte
EGPX SIGMET 01 VALID 210300/210600 EGRR
EGPX SCOTTISH FIR SEV MTW FCST WI N5859 W00030 - N5645 W00033 - N5607 W00451 - N5810 W00439 - N5859 W00030 SFC/FL220 MOV SE 10KT WKN=



MET'MAP, la Météo Aéronautique d'un coup d'oeil ! - Copyright ORBIFLY Décembre 2007 - Disclaimer

ORBIFLY MET'MAP TEAM :

Programmation & Développement : Alexandra Zaïnal
Conception & Développement : Baudouin d'Aumeries
Co-Programmation & Développement : Marc-Olivier Méhu
Soutien technique & logistique : Manuel Goepfert

Contact : metmap@orbifly.com




SOURCES & CREDITS :

   NOAA